Ashland, Montana
Current Conditions -  °F | °C
As of 2:53 AM on Friday 24 Oct 2014 (Local Time) from KMLS Reporting Station
Clear Clear  
Wind Chill:   Ceiling: Unl
Heat Index:   Visibility: 10mi
Dew Point:   Wind: 7mph
Humidity: 65%   Direction: 160°SSE
Pressure: 29.86"   Gusts: NA
Location:  45.62°N, 106.31°W
Report Text: KMLS 240853Z AUTO 16006KT 10SM CLR 07/01 A2986 RMK AO2 SLP107 T00670006 53008
Loading
Personal Weather Stations






























Interactive Weather Map New forecast layout! Learn more

10-Day Weather Forecast

Advertisements
Track Severe Weather on mobile